sensor_id;sensor_type;location;lat;lon;timestamp;P1;durP1;ratioP1;P2;durP2;ratioP2
19867;SDS011;10096;51.112;6.776;2022-07-29T00:01:45;5.85;;;2.90;;
19867;SDS011;10096;51.112;6.776;2022-07-29T00:04:14;6.72;;;2.58;;
19867;SDS011;10096;51.112;6.776;2022-07-29T00:06:41;5.82;;;2.40;;
19867;SDS011;10096;51.112;6.776;2022-07-29T00:09:08;6.68;;;2.63;;
19867;SDS011;10096;51.112;6.776;2022-07-29T00:11:35;6.90;;;2.83;;
19867;SDS011;10096;51.112;6.776;2022-07-29T00:14:02;5.22;;;2.75;;
19867;SDS011;10096;51.112;6.776;2022-07-29T00:16:29;3.72;;;2.33;;
19867;SDS011;10096;51.112;6.776;2022-07-29T00:18:56;4.97;;;2.25;;
19867;SDS011;10096;51.112;6.776;2022-07-29T00:21:24;3.85;;;2.70;;
19867;SDS011;10096;51.112;6.776;2022-07-29T00:23:51;6.07;;;2.72;;
19867;SDS011;10096;51.112;6.776;2022-07-29T00:26:18;6.50;;;2.80;;
19867;SDS011;10096;51.112;6.776;2022-07-29T00:28:45;3.97;;;2.95;;
19867;SDS011;10096;51.112;6.776;2022-07-29T00:31:12;3.53;;;2.75;;
19867;SDS011;10096;51.112;6.776;2022-07-29T00:33:39;7.15;;;2.38;;
19867;SDS011;10096;51.112;6.776;2022-07-29T00:36:06;6.25;;;2.50;;
19867;SDS011;10096;51.112;6.776;2022-07-29T00:38:33;4.57;;;2.67;;
19867;SDS011;10096;51.112;6.776;2022-07-29T00:41:00;5.15;;;2.63;;
19867;SDS011;10096;51.112;6.776;2022-07-29T00:43:27;4.35;;;2.90;;
19867;SDS011;10096;51.112;6.776;2022-07-29T00:45:54;7.78;;;2.70;;
19867;SDS011;10096;51.112;6.776;2022-07-29T00:48:20;8.13;;;3.00;;
19867;SDS011;10096;51.112;6.776;2022-07-29T00:50:47;5.57;;;2.40;;
19867;SDS011;10096;51.112;6.776;2022-07-29T00:53:15;3.50;;;2.30;;
19867;SDS011;10096;51.112;6.776;2022-07-29T00:55:44;2.88;;;2.47;;
19867;SDS011;10096;51.112;6.776;2022-07-29T00:58:11;3.50;;;2.10;;
19867;SDS011;10096;51.112;6.776;2022-07-29T01:00:39;5.95;;;2.35;;
19867;SDS011;10096;51.112;6.776;2022-07-29T01:03:06;5.40;;;2.55;;
19867;SDS011;10096;51.112;6.776;2022-07-29T01:05:33;2.92;;;2.30;;
19867;SDS011;10096;51.112;6.776;2022-07-29T01:08:01;6.13;;;2.60;;
19867;SDS011;10096;51.112;6.776;2022-07-29T01:10:28;4.22;;;2.78;;
19867;SDS011;10096;51.112;6.776;2022-07-29T01:12:58;4.90;;;2.65;;
19867;SDS011;10096;51.112;6.776;2022-07-29T01:15:26;4.43;;;2.75;;
19867;SDS011;10096;51.112;6.776;2022-07-29T01:17:56;5.82;;;2.35;;
19867;SDS011;10096;51.112;6.776;2022-07-29T01:20:31;4.55;;;2.40;;
19867;SDS011;10096;51.112;6.776;2022-07-29T01:23:21;3.63;;;2.47;;
19867;SDS011;10096;51.112;6.776;2022-07-29T01:29:14;4.53;;;2.70;;
19867;SDS011;10096;51.112;6.776;2022-07-29T01:31:48;3.45;;;2.53;;
19867;SDS011;10096;51.112;6.776;2022-07-29T01:34:21;3.25;;;2.30;;
19867;SDS011;10096;51.112;6.776;2022-07-29T01:36:51;3.17;;;2.30;;
19867;SDS011;10096;51.112;6.776;2022-07-29T01:39:26;3.95;;;2.72;;
19867;SDS011;10096;51.112;6.776;2022-07-29T01:41:59;4.03;;;2.92;;
19867;SDS011;10096;51.112;6.776;2022-07-29T01:44:34;6.20;;;2.42;;
19867;SDS011;10096;51.112;6.776;2022-07-29T01:47:08;4.13;;;2.42;;
19867;SDS011;10096;51.112;6.776;2022-07-29T01:49:41;5.75;;;2.50;;
19867;SDS011;10096;51.112;6.776;2022-07-29T01:52:13;2.90;;;2.30;;
19867;SDS011;10096;51.112;6.776;2022-07-29T01:54:49;4.28;;;2.83;;
19867;SDS011;10096;51.112;6.776;2022-07-29T01:57:21;6.45;;;2.70;;
19867;SDS011;10096;51.112;6.776;2022-07-29T01:59:58;5.00;;;2.80;;
19867;SDS011;10096;51.112;6.776;2022-07-29T02:02:27;4.38;;;2.88;;
19867;SDS011;10096;51.112;6.776;2022-07-29T02:04:56;4.22;;;2.85;;
19867;SDS011;10096;51.112;6.776;2022-07-29T02:07:23;5.20;;;2.75;;
19867;SDS011;10096;51.112;6.776;2022-07-29T02:09:53;5.47;;;2.90;;
19867;SDS011;10096;51.112;6.776;2022-07-29T02:12:22;8.73;;;2.80;;
19867;SDS011;10096;51.112;6.776;2022-07-29T02:14:53;6.10;;;2.53;;
19867;SDS011;10096;51.112;6.776;2022-07-29T02:17:23;6.70;;;2.88;;
19867;SDS011;10096;51.112;6.776;2022-07-29T02:19:52;5.45;;;2.78;;
19867;SDS011;10096;51.112;6.776;2022-07-29T02:22:22;5.28;;;3.03;;
19867;SDS011;10096;51.112;6.776;2022-07-29T02:24:50;6.20;;;2.90;;
19867;SDS011;10096;51.112;6.776;2022-07-29T02:27:19;5.32;;;2.75;;
19867;SDS011;10096;51.112;6.776;2022-07-29T02:29:46;5.97;;;3.15;;
19867;SDS011;10096;51.112;6.776;2022-07-29T02:32:15;6.20;;;3.00;;
19867;SDS011;10096;51.112;6.776;2022-07-29T02:34:44;8.40;;;2.95;;
19867;SDS011;10096;51.112;6.776;2022-07-29T02:37:16;7.38;;;2.72;;
19867;SDS011;10096;51.112;6.776;2022-07-29T02:39:44;4.47;;;3.00;;
19867;SDS011;10096;51.112;6.776;2022-07-29T02:42:14;4.72;;;3.00;;
19867;SDS011;10096;51.112;6.776;2022-07-29T02:44:42;5.78;;;2.35;;
19867;SDS011;10096;51.112;6.776;2022-07-29T02:47:10;4.90;;;2.63;;
19867;SDS011;10096;51.112;6.776;2022-07-29T02:49:46;4.63;;;3.28;;
19867;SDS011;10096;51.112;6.776;2022-07-29T02:52:21;4.72;;;2.92;;
19867;SDS011;10096;51.112;6.776;2022-07-29T02:54:53;5.38;;;2.72;;
19867;SDS011;10096;51.112;6.776;2022-07-29T02:57:26;3.53;;;2.70;;
19867;SDS011;10096;51.112;6.776;2022-07-29T02:59:58;4.88;;;2.83;;
19867;SDS011;10096;51.112;6.776;2022-07-29T03:02:31;5.82;;;3.30;;
19867;SDS011;10096;51.112;6.776;2022-07-29T03:05:03;7.82;;;3.53;;
19867;SDS011;10096;51.112;6.776;2022-07-29T03:07:32;6.32;;;3.17;;
19867;SDS011;10096;51.112;6.776;2022-07-29T03:10:01;8.02;;;3.53;;
19867;SDS011;10096;51.112;6.776;2022-07-29T03:12:29;5.97;;;3.30;;
19867;SDS011;10096;51.112;6.776;2022-07-29T03:14:57;4.47;;;3.05;;
19867;SDS011;10096;51.112;6.776;2022-07-29T03:17:26;4.95;;;3.00;;
19867;SDS011;10096;51.112;6.776;2022-07-29T03:19:53;4.95;;;3.10;;
19867;SDS011;10096;51.112;6.776;2022-07-29T03:22:22;4.78;;;3.13;;
19867;SDS011;10096;51.112;6.776;2022-07-29T03:24:50;7.72;;;3.80;;
19867;SDS011;10096;51.112;6.776;2022-07-29T03:27:18;8.43;;;3.83;;
19867;SDS011;10096;51.112;6.776;2022-07-29T03:29:45;5.38;;;3.35;;
19867;SDS011;10096;51.112;6.776;2022-07-29T03:32:12;6.78;;;3.50;;
19867;SDS011;10096;51.112;6.776;2022-07-29T03:34:38;6.53;;;3.88;;
19867;SDS011;10096;51.112;6.776;2022-07-29T03:37:05;5.82;;;3.45;;
19867;SDS011;10096;51.112;6.776;2022-07-29T03:39:35;5.40;;;3.28;;
19867;SDS011;10096;51.112;6.776;2022-07-29T03:42:05;4.13;;;2.95;;
19867;SDS011;10096;51.112;6.776;2022-07-29T03:44:34;5.50;;;2.92;;
19867;SDS011;10096;51.112;6.776;2022-07-29T03:47:02;5.65;;;3.22;;
19867;SDS011;10096;51.112;6.776;2022-07-29T03:49:31;4.07;;;2.83;;
19867;SDS011;10096;51.112;6.776;2022-07-29T03:52:02;6.18;;;3.50;;
19867;SDS011;10096;51.112;6.776;2022-07-29T03:54:30;4.80;;;3.42;;
19867;SDS011;10096;51.112;6.776;2022-07-29T03:56:58;4.82;;;3.13;;
19867;SDS011;10096;51.112;6.776;2022-07-29T03:59:27;5.13;;;3.30;;
19867;SDS011;10096;51.112;6.776;2022-07-29T04:01:55;6.60;;;3.90;;
19867;SDS011;10096;51.112;6.776;2022-07-29T04:04:24;5.75;;;4.13;;
19867;SDS011;10096;51.112;6.776;2022-07-29T04:06:51;6.55;;;4.68;;
19867;SDS011;10096;51.112;6.776;2022-07-29T04:09:18;8.48;;;4.68;;
19867;SDS011;10096;51.112;6.776;2022-07-29T04:11:45;8.00;;;5.50;;
19867;SDS011;10096;51.112;6.776;2022-07-29T04:14:13;6.22;;;4.18;;
19867;SDS011;10096;51.112;6.776;2022-07-29T04:16:41;4.75;;;3.60;;
19867;SDS011;10096;51.112;6.776;2022-07-29T04:19:08;5.25;;;3.30;;
19867;SDS011;10096;51.112;6.776;2022-07-29T04:21:36;5.78;;;3.25;;
19867;SDS011;10096;51.112;6.776;2022-07-29T04:24:03;7.70;;;3.78;;
19867;SDS011;10096;51.112;6.776;2022-07-29T04:26:31;5.60;;;4.28;;
19867;SDS011;10096;51.112;6.776;2022-07-29T04:28:58;7.63;;;5.53;;
19867;SDS011;10096;51.112;6.776;2022-07-29T04:31:27;8.75;;;6.00;;
19867;SDS011;10096;51.112;6.776;2022-07-29T04:33:54;8.07;;;5.70;;
19867;SDS011;10096;51.112;6.776;2022-07-29T04:36:21;8.70;;;4.97;;
19867;SDS011;10096;51.112;6.776;2022-07-29T04:38:48;8.25;;;4.80;;
19867;SDS011;10096;51.112;6.776;2022-07-29T04:41:15;6.45;;;4.95;;
19867;SDS011;10096;51.112;6.776;2022-07-29T04:43:41;7.38;;;4.70;;
19867;SDS011;10096;51.112;6.776;2022-07-29T04:46:09;7.13;;;4.20;;
19867;SDS011;10096;51.112;6.776;2022-07-29T04:48:37;10.02;;;4.47;;
19867;SDS011;10096;51.112;6.776;2022-07-29T04:51:04;6.10;;;4.40;;
19867;SDS011;10096;51.112;6.776;2022-07-29T04:53:31;6.75;;;4.88;;
19867;SDS011;10096;51.112;6.776;2022-07-29T04:55:58;6.40;;;5.45;;
19867;SDS011;10096;51.112;6.776;2022-07-29T04:58:24;7.95;;;4.75;;
19867;SDS011;10096;51.112;6.776;2022-07-29T05:00:51;7.05;;;4.93;;
19867;SDS011;10096;51.112;6.776;2022-07-29T05:03:18;9.80;;;5.75;;
19867;SDS011;10096;51.112;6.776;2022-07-29T05:05:46;5.72;;;4.38;;
19867;SDS011;10096;51.112;6.776;2022-07-29T05:08:13;7.22;;;4.38;;
19867;SDS011;10096;51.112;6.776;2022-07-29T05:10:40;6.38;;;3.60;;
19867;SDS011;10096;51.112;6.776;2022-07-29T05:13:07;5.50;;;3.67;;
19867;SDS011;10096;51.112;6.776;2022-07-29T05:15:34;3.72;;;3.30;;
19867;SDS011;10096;51.112;6.776;2022-07-29T05:18:01;5.40;;;3.70;;
19867;SDS011;10096;51.112;6.776;2022-07-29T05:20:28;7.85;;;3.67;;
19867;SDS011;10096;51.112;6.776;2022-07-29T05:22:58;4.55;;;3.30;;
19867;SDS011;10096;51.112;6.776;2022-07-29T05:25:26;5.07;;;3.90;;
19867;SDS011;10096;51.112;6.776;2022-07-29T05:27:54;5.68;;;3.75;;
19867;SDS011;10096;51.112;6.776;2022-07-29T05:30:22;7.03;;;3.40;;
19867;SDS011;10096;51.112;6.776;2022-07-29T05:32:49;5.32;;;3.63;;
19867;SDS011;10096;51.112;6.776;2022-07-29T05:35:16;6.65;;;3.60;;
19867;SDS011;10096;51.112;6.776;2022-07-29T05:37:42;7.10;;;3.53;;
19867;SDS011;10096;51.112;6.776;2022-07-29T05:40:11;4.03;;;3.35;;
19867;SDS011;10096;51.112;6.776;2022-07-29T05:42:38;7.13;;;4.32;;
19867;SDS011;10096;51.112;6.776;2022-07-29T05:45:05;5.40;;;3.58;;
19867;SDS011;10096;51.112;6.776;2022-07-29T05:47:33;6.45;;;3.78;;
19867;SDS011;10096;51.112;6.776;2022-07-29T05:50:00;6.43;;;3.33;;
19867;SDS011;10096;51.112;6.776;2022-07-29T05:52:27;5.68;;;3.78;;
19867;SDS011;10096;51.112;6.776;2022-07-29T05:54:54;5.82;;;3.63;;
19867;SDS011;10096;51.112;6.776;2022-07-29T05:57:23;4.50;;;3.72;;
19867;SDS011;10096;51.112;6.776;2022-07-29T05:59:51;7.72;;;4.03;;
19867;SDS011;10096;51.112;6.776;2022-07-29T06:02:18;6.03;;;3.83;;
19867;SDS011;10096;51.112;6.776;2022-07-29T06:04:45;4.60;;;3.72;;
19867;SDS011;10096;51.112;6.776;2022-07-29T06:07:11;5.72;;;3.75;;
19867;SDS011;10096;51.112;6.776;2022-07-29T06:09:38;3.67;;;3.22;;
19867;SDS011;10096;51.112;6.776;2022-07-29T06:12:05;5.13;;;3.60;;
19867;SDS011;10096;51.112;6.776;2022-07-29T06:14:33;4.57;;;3.72;;
19867;SDS011;10096;51.112;6.776;2022-07-29T06:17:02;7.65;;;3.88;;
19867;SDS011;10096;51.112;6.776;2022-07-29T06:19:30;8.95;;;4.03;;
19867;SDS011;10096;51.112;6.776;2022-07-29T06:21:57;6.60;;;3.50;;
19867;SDS011;10096;51.112;6.776;2022-07-29T06:24:24;7.63;;;3.50;;
19867;SDS011;10096;51.112;6.776;2022-07-29T06:26:51;5.13;;;3.30;;
19867;SDS011;10096;51.112;6.776;2022-07-29T06:29:17;6.55;;;4.20;;
19867;SDS011;10096;51.112;6.776;2022-07-29T06:31:47;5.45;;;4.00;;
19867;SDS011;10096;51.112;6.776;2022-07-29T06:34:14;5.65;;;3.97;;
19867;SDS011;10096;51.112;6.776;2022-07-29T06:36:41;5.03;;;4.15;;
19867;SDS011;10096;51.112;6.776;2022-07-29T06:39:08;7.72;;;3.97;;
19867;SDS011;10096;51.112;6.776;2022-07-29T06:41:35;5.05;;;3.50;;
19867;SDS011;10096;51.112;6.776;2022-07-29T06:44:02;7.03;;;3.88;;
19867;SDS011;10096;51.112;6.776;2022-07-29T06:46:30;6.53;;;4.18;;
19867;SDS011;10096;51.112;6.776;2022-07-29T06:48:59;5.88;;;4.07;;
19867;SDS011;10096;51.112;6.776;2022-07-29T06:51:27;5.60;;;4.13;;
19867;SDS011;10096;51.112;6.776;2022-07-29T06:53:54;5.38;;;3.97;;
19867;SDS011;10096;51.112;6.776;2022-07-29T06:56:22;9.68;;;4.57;;
19867;SDS011;10096;51.112;6.776;2022-07-29T06:58:49;15.50;;;8.05;;
19867;SDS011;10096;51.112;6.776;2022-07-29T07:01:16;9.15;;;5.43;;
19867;SDS011;10096;51.112;6.776;2022-07-29T07:03:43;8.73;;;5.35;;
19867;SDS011;10096;51.112;6.776;2022-07-29T07:06:11;7.03;;;5.30;;
19867;SDS011;10096;51.112;6.776;2022-07-29T07:08:38;7.57;;;4.93;;
19867;SDS011;10096;51.112;6.776;2022-07-29T07:11:05;5.57;;;4.75;;
19867;SDS011;10096;51.112;6.776;2022-07-29T07:13:32;7.20;;;4.70;;
19867;SDS011;10096;51.112;6.776;2022-07-29T07:15:59;7.90;;;4.93;;
19867;SDS011;10096;51.112;6.776;2022-07-29T07:18:27;8.38;;;5.05;;
19867;SDS011;10096;51.112;6.776;2022-07-29T07:20:54;7.88;;;5.10;;
19867;SDS011;10096;51.112;6.776;2022-07-29T07:23:23;9.13;;;5.53;;
19867;SDS011;10096;51.112;6.776;2022-07-29T07:25:50;6.78;;;5.22;;
19867;SDS011;10096;51.112;6.776;2022-07-29T07:28:17;6.55;;;5.50;;
19867;SDS011;10096;51.112;6.776;2022-07-29T07:30:45;7.20;;;5.32;;
19867;SDS011;10096;51.112;6.776;2022-07-29T07:33:12;7.53;;;5.60;;
19867;SDS011;10096;51.112;6.776;2022-07-29T07:35:39;7.75;;;6.00;;
19867;SDS011;10096;51.112;6.776;2022-07-29T07:38:06;8.02;;;6.22;;
19867;SDS011;10096;51.112;6.776;2022-07-29T07:40:35;12.65;;;6.75;;
19867;SDS011;10096;51.112;6.776;2022-07-29T07:43:02;7.82;;;5.78;;
19867;SDS011;10096;51.112;6.776;2022-07-29T07:45:29;7.78;;;5.72;;
19867;SDS011;10096;51.112;6.776;2022-07-29T07:47:58;7.90;;;5.95;;
19867;SDS011;10096;51.112;6.776;2022-07-29T07:50:25;8.57;;;5.93;;
19867;SDS011;10096;51.112;6.776;2022-07-29T07:52:53;9.02;;;6.18;;
19867;SDS011;10096;51.112;6.776;2022-07-29T07:55:22;9.05;;;6.32;;
19867;SDS011;10096;51.112;6.776;2022-07-29T07:57:51;7.75;;;6.88;;
19867;SDS011;10096;51.112;6.776;2022-07-29T08:00:18;7.25;;;6.50;;
19867;SDS011;10096;51.112;6.776;2022-07-29T08:02:45;7.68;;;6.50;;
19867;SDS011;10096;51.112;6.776;2022-07-29T08:05:13;9.38;;;6.60;;
19867;SDS011;10096;51.112;6.776;2022-07-29T08:07:42;14.02;;;7.50;;
19867;SDS011;10096;51.112;6.776;2022-07-29T08:10:10;8.60;;;7.70;;
19867;SDS011;10096;51.112;6.776;2022-07-29T08:12:37;11.93;;;7.43;;
19867;SDS011;10096;51.112;6.776;2022-07-29T08:15:07;11.07;;;7.05;;
19867;SDS011;10096;51.112;6.776;2022-07-29T08:17:35;7.57;;;6.82;;
19867;SDS011;10096;51.112;6.776;2022-07-29T08:20:03;11.38;;;7.32;;
19867;SDS011;10096;51.112;6.776;2022-07-29T08:22:30;9.77;;;7.82;;
19867;SDS011;10096;51.112;6.776;2022-07-29T08:24:57;10.38;;;7.13;;
19867;SDS011;10096;51.112;6.776;2022-07-29T08:27:24;13.07;;;7.03;;
19867;SDS011;10096;51.112;6.776;2022-07-29T08:29:54;9.50;;;6.78;;
19867;SDS011;10096;51.112;6.776;2022-07-29T08:32:23;9.82;;;7.07;;
19867;SDS011;10096;51.112;6.776;2022-07-29T08:34:50;8.88;;;6.85;;
19867;SDS011;10096;51.112;6.776;2022-07-29T08:37:17;11.93;;;7.15;;
19867;SDS011;10096;51.112;6.776;2022-07-29T08:39:44;10.98;;;6.38;;
19867;SDS011;10096;51.112;6.776;2022-07-29T08:42:11;26.90;;;22.40;;
19867;SDS011;10096;51.112;6.776;2022-07-29T08:44:38;8.00;;;6.30;;
19867;SDS011;10096;51.112;6.776;2022-07-29T08:47:05;6.80;;;6.10;;
19867;SDS011;10096;51.112;6.776;2022-07-29T08:49:34;7.47;;;6.25;;
19867;SDS011;10096;51.112;6.776;2022-07-29T08:52:02;8.45;;;6.72;;
19867;SDS011;10096;51.112;6.776;2022-07-29T08:54:29;8.65;;;6.80;;
19867;SDS011;10096;51.112;6.776;2022-07-29T08:56:57;6.45;;;5.80;;
19867;SDS011;10096;51.112;6.776;2022-07-29T08:59:27;7.90;;;5.78;;
19867;SDS011;10096;51.112;6.776;2022-07-29T09:01:56;11.48;;;8.48;;
19867;SDS011;10096;51.112;6.776;2022-07-29T09:04:24;7.80;;;6.20;;
19867;SDS011;10096;51.112;6.776;2022-07-29T09:06:59;6.43;;;5.22;;
19867;SDS011;10096;51.112;6.776;2022-07-29T09:09:29;7.35;;;4.93;;
19867;SDS011;10096;51.112;6.776;2022-07-29T09:11:57;8.88;;;6.47;;
19867;SDS011;10096;51.112;6.776;2022-07-29T09:14:25;6.20;;;5.35;;
19867;SDS011;10096;51.112;6.776;2022-07-29T09:16:52;7.97;;;5.55;;
19867;SDS011;10096;51.112;6.776;2022-07-29T09:19:22;7.57;;;5.85;;
19867;SDS011;10096;51.112;6.776;2022-07-29T09:21:50;8.77;;;5.85;;
19867;SDS011;10096;51.112;6.776;2022-07-29T09:24:25;6.43;;;5.70;;
19867;SDS011;10096;51.112;6.776;2022-07-29T09:27:08;8.68;;;6.22;;
19867;SDS011;10096;51.112;6.776;2022-07-29T09:29:37;10.57;;;6.72;;
19867;SDS011;10096;51.112;6.776;2022-07-29T09:32:06;19.27;;;9.63;;
19867;SDS011;10096;51.112;6.776;2022-07-29T09:34:36;11.73;;;7.40;;
19867;SDS011;10096;51.112;6.776;2022-07-29T09:37:04;10.85;;;8.02;;
19867;SDS011;10096;51.112;6.776;2022-07-29T09:39:33;11.02;;;7.25;;
19867;SDS011;10096;51.112;6.776;2022-07-29T09:42:02;8.27;;;7.35;;
19867;SDS011;10096;51.112;6.776;2022-07-29T09:44:40;8.27;;;7.22;;
19867;SDS011;10096;51.112;6.776;2022-07-29T09:47:09;8.63;;;7.72;;
19867;SDS011;10096;51.112;6.776;2022-07-29T09:49:49;12.82;;;7.95;;
19867;SDS011;10096;51.112;6.776;2022-07-29T09:52:18;10.10;;;8.80;;
19867;SDS011;10096;51.112;6.776;2022-07-29T09:54:46;11.30;;;9.07;;
19867;SDS011;10096;51.112;6.776;2022-07-29T09:57:23;17.90;;;9.15;;
19867;SDS011;10096;51.112;6.776;2022-07-29T09:59:58;11.95;;;9.25;;
19867;SDS011;10096;51.112;6.776;2022-07-29T10:02:30;9.93;;;7.97;;
19867;SDS011;10096;51.112;6.776;2022-07-29T10:05:00;8.25;;;7.35;;
19867;SDS011;10096;51.112;6.776;2022-07-29T10:07:42;11.60;;;8.07;;
19867;SDS011;10096;51.112;6.776;2022-07-29T10:10:17;17.20;;;11.25;;
19867;SDS011;10096;51.112;6.776;2022-07-29T10:12:49;8.60;;;7.00;;
19867;SDS011;10096;51.112;6.776;2022-07-29T10:15:18;7.97;;;7.18;;
19867;SDS011;10096;51.112;6.776;2022-07-29T10:17:46;8.77;;;6.75;;
19867;SDS011;10096;51.112;6.776;2022-07-29T10:20:16;9.25;;;6.85;;
19867;SDS011;10096;51.112;6.776;2022-07-29T10:22:43;9.05;;;7.03;;
19867;SDS011;10096;51.112;6.776;2022-07-29T10:25:13;12.50;;;6.82;;
19867;SDS011;10096;51.112;6.776;2022-07-29T10:27:42;14.68;;;8.18;;
19867;SDS011;10096;51.112;6.776;2022-07-29T10:30:10;12.90;;;8.40;;
19867;SDS011;10096;51.112;6.776;2022-07-29T10:35:44;6.88;;;6.18;;
19867;SDS011;10096;51.112;6.776;2022-07-29T10:41:16;6.90;;;6.10;;
19867;SDS011;10096;51.112;6.776;2022-07-29T10:43:57;6.75;;;5.88;;
19867;SDS011;10096;51.112;6.776;2022-07-29T10:46:27;7.95;;;7.05;;
19867;SDS011;10096;51.112;6.776;2022-07-29T10:49:04;11.40;;;6.65;;
19867;SDS011;10096;51.112;6.776;2022-07-29T10:54:46;6.43;;;5.03;;
19867;SDS011;10096;51.112;6.776;2022-07-29T10:57:19;6.38;;;5.70;;
19867;SDS011;10096;51.112;6.776;2022-07-29T10:59:50;6.70;;;4.50;;
19867;SDS011;10096;51.112;6.776;2022-07-29T11:02:45;7.20;;;4.90;;
19867;SDS011;10096;51.112;6.776;2022-07-29T11:05:18;6.82;;;4.50;;
19867;SDS011;10096;51.112;6.776;2022-07-29T11:10:48;6.90;;;4.28;;
19867;SDS011;10096;51.112;6.776;2022-07-29T11:16:57;5.53;;;3.85;;
19867;SDS011;10096;51.112;6.776;2022-07-29T11:19:27;7.43;;;3.70;;
19867;SDS011;10096;51.112;6.776;2022-07-29T11:21:54;6.75;;;3.65;;
19867;SDS011;10096;51.112;6.776;2022-07-29T11:24:22;6.35;;;4.18;;
19867;SDS011;10096;51.112;6.776;2022-07-29T11:27:09;5.97;;;3.55;;
19867;SDS011;10096;51.112;6.776;2022-07-29T11:29:50;7.63;;;4.10;;
19867;SDS011;10096;51.112;6.776;2022-07-29T11:32:43;8.93;;;4.07;;
19867;SDS011;10096;51.112;6.776;2022-07-29T11:35:12;4.20;;;3.72;;
19867;SDS011;10096;51.112;6.776;2022-07-29T11:37:41;5.75;;;3.30;;
19867;SDS011;10096;51.112;6.776;2022-07-29T11:40:18;5.63;;;3.60;;
19867;SDS011;10096;51.112;6.776;2022-07-29T11:42:47;6.45;;;3.60;;
19867;SDS011;10096;51.112;6.776;2022-07-29T11:48:16;7.15;;;3.70;;
19867;SDS011;10096;51.112;6.776;2022-07-29T11:50:44;7.28;;;3.90;;
19867;SDS011;10096;51.112;6.776;2022-07-29T11:53:12;6.80;;;3.75;;
19867;SDS011;10096;51.112;6.776;2022-07-29T11:55:39;5.78;;;3.67;;
19867;SDS011;10096;51.112;6.776;2022-07-29T11:58:07;5.65;;;3.55;;
19867;SDS011;10096;51.112;6.776;2022-07-29T12:00:35;4.10;;;3.67;;
19867;SDS011;10096;51.112;6.776;2022-07-29T12:03:06;4.57;;;3.53;;
19867;SDS011;10096;51.112;6.776;2022-07-29T12:05:38;4.32;;;3.40;;
19867;SDS011;10096;51.112;6.776;2022-07-29T12:08:09;5.38;;;3.55;;
19867;SDS011;10096;51.112;6.776;2022-07-29T12:10:38;7.43;;;4.28;;
19867;SDS011;10096;51.112;6.776;2022-07-29T12:13:06;4.45;;;3.70;;
19867;SDS011;10096;51.112;6.776;2022-07-29T12:15:33;5.65;;;4.57;;
19867;SDS011;10096;51.112;6.776;2022-07-29T12:20:48;12.25;;;4.60;;
19867;SDS011;10096;51.112;6.776;2022-07-29T12:23:22;7.22;;;5.45;;
19867;SDS011;10096;51.112;6.776;2022-07-29T12:25:52;6.97;;;5.10;;
19867;SDS011;10096;51.112;6.776;2022-07-29T12:28:19;16.25;;;10.20;;
19867;SDS011;10096;51.112;6.776;2022-07-29T12:30:47;8.95;;;6.57;;
19867;SDS011;10096;51.112;6.776;2022-07-29T12:33:17;8.50;;;5.80;;
19867;SDS011;10096;51.112;6.776;2022-07-29T12:35:48;7.40;;;6.13;;
19867;SDS011;10096;51.112;6.776;2022-07-29T12:38:19;10.68;;;7.13;;
19867;SDS011;10096;51.112;6.776;2022-07-29T12:40:47;6.82;;;5.65;;
19867;SDS011;10096;51.112;6.776;2022-07-29T12:43:16;9.13;;;5.68;;
19867;SDS011;10096;51.112;6.776;2022-07-29T12:45:44;9.30;;;6.20;;
19867;SDS011;10096;51.112;6.776;2022-07-29T12:48:12;8.43;;;6.53;;
19867;SDS011;10096;51.112;6.776;2022-07-29T12:50:55;8.80;;;5.75;;
19867;SDS011;10096;51.112;6.776;2022-07-29T12:53:23;9.85;;;6.55;;
19867;SDS011;10096;51.112;6.776;2022-07-29T12:55:52;8.18;;;6.57;;
19867;SDS011;10096;51.112;6.776;2022-07-29T12:58:30;7.80;;;6.32;;
19867;SDS011;10096;51.112;6.776;2022-07-29T13:01:03;9.40;;;5.80;;
19867;SDS011;10096;51.112;6.776;2022-07-29T13:03:50;11.27;;;5.88;;
19867;SDS011;10096;51.112;6.776;2022-07-29T13:06:32;7.70;;;6.00;;
19867;SDS011;10096;51.112;6.776;2022-07-29T13:09:04;10.02;;;5.10;;
19867;SDS011;10096;51.112;6.776;2022-07-29T13:11:34;7.07;;;5.72;;
19867;SDS011;10096;51.112;6.776;2022-07-29T13:14:13;8.35;;;5.55;;
19867;SDS011;10096;51.112;6.776;2022-07-29T13:17:00;15.50;;;7.30;;
19867;SDS011;10096;51.112;6.776;2022-07-29T13:19:34;8.00;;;5.40;;
19867;SDS011;10096;51.112;6.776;2022-07-29T13:22:08;10.00;;;6.32;;
19867;SDS011;10096;51.112;6.776;2022-07-29T13:24:45;12.25;;;6.15;;
19867;SDS011;10096;51.112;6.776;2022-07-29T13:27:13;10.40;;;6.72;;
19867;SDS011;10096;51.112;6.776;2022-07-29T13:29:40;14.52;;;7.20;;
19867;SDS011;10096;51.112;6.776;2022-07-29T13:32:10;9.75;;;7.07;;
19867;SDS011;10096;51.112;6.776;2022-07-29T13:34:38;9.15;;;6.30;;
19867;SDS011;10096;51.112;6.776;2022-07-29T13:37:05;7.43;;;5.82;;
19867;SDS011;10096;51.112;6.776;2022-07-29T13:39:34;9.52;;;6.25;;
19867;SDS011;10096;51.112;6.776;2022-07-29T13:42:05;7.78;;;5.97;;
19867;SDS011;10096;51.112;6.776;2022-07-29T13:44:33;8.85;;;5.97;;
19867;SDS011;10096;51.112;6.776;2022-07-29T13:47:03;6.68;;;5.68;;
19867;SDS011;10096;51.112;6.776;2022-07-29T13:49:32;6.93;;;5.40;;
19867;SDS011;10096;51.112;6.776;2022-07-29T13:51:59;6.63;;;4.60;;
19867;SDS011;10096;51.112;6.776;2022-07-29T13:54:29;6.10;;;4.63;;
19867;SDS011;10096;51.112;6.776;2022-07-29T13:56:57;8.10;;;5.10;;
19867;SDS011;10096;51.112;6.776;2022-07-29T13:59:25;6.20;;;4.82;;
19867;SDS011;10096;51.112;6.776;2022-07-29T14:01:52;7.63;;;5.75;;
19867;SDS011;10096;51.112;6.776;2022-07-29T14:04:19;8.68;;;5.40;;
19867;SDS011;10096;51.112;6.776;2022-07-29T14:06:48;6.40;;;5.20;;
19867;SDS011;10096;51.112;6.776;2022-07-29T14:09:15;9.70;;;5.90;;
19867;SDS011;10096;51.112;6.776;2022-07-29T14:11:44;8.38;;;6.15;;
19867;SDS011;10096;51.112;6.776;2022-07-29T14:14:14;7.22;;;5.38;;
19867;SDS011;10096;51.112;6.776;2022-07-29T14:16:41;5.90;;;5.22;;
19867;SDS011;10096;51.112;6.776;2022-07-29T14:19:08;6.15;;;5.20;;
19867;SDS011;10096;51.112;6.776;2022-07-29T14:21:36;6.55;;;4.45;;
19867;SDS011;10096;51.112;6.776;2022-07-29T14:24:03;8.23;;;4.10;;
19867;SDS011;10096;51.112;6.776;2022-07-29T14:26:32;7.20;;;4.30;;
19867;SDS011;10096;51.112;6.776;2022-07-29T14:29:00;7.40;;;5.80;;
19867;SDS011;10096;51.112;6.776;2022-07-29T14:31:27;6.20;;;3.95;;
19867;SDS011;10096;51.112;6.776;2022-07-29T14:33:54;6.95;;;4.43;;
19867;SDS011;10096;51.112;6.776;2022-07-29T14:36:21;5.45;;;4.40;;
19867;SDS011;10096;51.112;6.776;2022-07-29T14:38:48;5.45;;;4.30;;
19867;SDS011;10096;51.112;6.776;2022-07-29T14:41:16;17.95;;;9.45;;
19867;SDS011;10096;51.112;6.776;2022-07-29T14:43:44;7.55;;;4.80;;
19867;SDS011;10096;51.112;6.776;2022-07-29T14:46:12;4.40;;;3.83;;
19867;SDS011;10096;51.112;6.776;2022-07-29T14:48:39;5.70;;;4.65;;
19867;SDS011;10096;51.112;6.776;2022-07-29T14:51:06;5.97;;;4.75;;
19867;SDS011;10096;51.112;6.776;2022-07-29T14:53:33;6.95;;;4.93;;
19867;SDS011;10096;51.112;6.776;2022-07-29T14:56:00;5.93;;;4.20;;
19867;SDS011;10096;51.112;6.776;2022-07-29T14:58:27;3.90;;;3.50;;
19867;SDS011;10096;51.112;6.776;2022-07-29T15:00:54;4.78;;;3.72;;
19867;SDS011;10096;51.112;6.776;2022-07-29T15:03:24;4.15;;;3.75;;
19867;SDS011;10096;51.112;6.776;2022-07-29T15:05:51;5.50;;;3.72;;
19867;SDS011;10096;51.112;6.776;2022-07-29T15:08:18;4.35;;;3.92;;
19867;SDS011;10096;51.112;6.776;2022-07-29T15:10:45;4.82;;;3.90;;
19867;SDS011;10096;51.112;6.776;2022-07-29T15:13:12;5.28;;;3.65;;
19867;SDS011;10096;51.112;6.776;2022-07-29T15:15:39;4.72;;;3.20;;
19867;SDS011;10096;51.112;6.776;2022-07-29T15:18:06;6.75;;;3.38;;
19867;SDS011;10096;51.112;6.776;2022-07-29T15:20:35;4.78;;;3.58;;
19867;SDS011;10096;51.112;6.776;2022-07-29T15:23:03;5.75;;;3.47;;